Terminal Aerodrome Forecast
Issued by NWS

Home | Current Version | Previous Version | Text Only | Print | Product List | Glossary On
Versions: 1 2 3 4 5 6 7 8 9 10 11 12 13 14 15 16 17 18 19 20 21 22 23 24
035
FTUS46 KSEW 061120
TAFSEA
TAF
KSEA 061120Z 0612/0718 02006KT P6SM SKC
     FM061900 35014G22KT P6SM FEW250
     FM070600 02008KT P6SM SKC=

USA.gov is the U.S. government's official web portal to all federal, state and local government web resources and services.